createdAt,value
2019-04-27T00:01:45.321Z,5.57
2019-04-27T00:03:23.892Z,5.56
2019-04-27T00:05:35.429Z,5.63
2019-04-27T00:07:33.576Z,5.72
2019-04-27T00:09:28.217Z,5.68
2019-04-27T00:11:16.911Z,5.69
2019-04-27T00:12:53.036Z,5.73
2019-04-27T00:14:34.168Z,5.75
2019-04-27T00:16:31.424Z,5.79
2019-04-27T00:18:40.807Z,5.87
2019-04-27T00:20:37.393Z,5.87
2019-04-27T00:22:28.819Z,5.84
2019-04-27T00:24:04.011Z,5.84
2019-04-27T00:25:39.266Z,5.92
2019-04-27T00:27:14.541Z,5.91
2019-04-27T00:28:53.787Z,5.88
2019-04-27T00:30:29.275Z,5.88
2019-04-27T00:32:04.710Z,5.91
2019-04-27T00:33:40.076Z,5.90
2019-04-27T00:35:18.971Z,5.91
2019-04-27T00:37:13.607Z,5.96
2019-04-27T00:39:07.882Z,6.00
2019-04-27T00:40:53.778Z,6.16
2019-04-27T00:42:29.704Z,6.15
2019-04-27T00:44:17.442Z,6.11
2019-04-27T00:45:53.746Z,6.15
2019-04-27T00:47:29.637Z,6.18
2019-04-27T00:49:05.641Z,6.32
2019-04-27T00:50:40.767Z,6.35
2019-04-27T00:52:15.811Z,6.34
2019-04-27T00:53:54.875Z,6.36
2019-04-27T00:55:30.030Z,6.37
2019-04-27T01:00:27.075Z,6.53
2019-04-27T01:02:21.270Z,6.48
2019-04-27T01:03:58.814Z,6.48
2019-04-27T01:05:33.952Z,6.55
2019-04-27T01:07:10.927Z,6.57
2019-04-27T01:08:46.685Z,6.62
2019-04-27T01:10:24.190Z,6.63
2019-04-27T01:12:00.172Z,6.65
2019-04-27T01:13:35.303Z,6.65
2019-04-27T01:15:13.576Z,6.64
2019-04-27T01:16:49.248Z,6.57
2019-04-27T01:18:24.319Z,6.57
2019-04-27T01:19:59.614Z,6.52
2019-04-27T01:21:35.522Z,6.50
2019-04-27T01:23:10.960Z,6.43
2019-04-27T01:24:46.004Z,6.41
2019-04-27T01:26:50.009Z,6.31
2019-04-27T01:28:30.403Z,6.26
2019-04-27T01:30:14.006Z,6.15
2019-04-27T01:31:50.149Z,6.08
2019-04-27T01:33:30.318Z,5.96
2019-04-27T01:35:05.980Z,5.89
2019-04-27T01:36:41.387Z,5.78
2019-04-27T01:38:16.530Z,5.66
2019-04-27T01:39:51.741Z,5.60
2019-04-27T01:41:26.869Z,5.60
2019-04-27T01:43:02.269Z,5.47
2019-04-27T01:44:39.356Z,5.43
2019-04-27T01:46:15.008Z,5.43
2019-04-27T01:47:50.226Z,5.35
2019-04-27T01:49:25.276Z,5.27
2019-04-27T01:51:00.426Z,5.27
2019-04-27T01:52:35.792Z,5.23
2019-04-27T01:54:13.285Z,5.21
2019-04-27T01:55:49.128Z,5.20
2019-04-27T01:57:24.387Z,5.29
2019-04-27T01:58:59.631Z,5.45
2019-04-27T02:00:59.471Z,5.46
2019-04-27T02:02:47.395Z,5.53
2019-04-27T02:04:49.312Z,5.51
2019-04-27T02:06:29.406Z,5.43
2019-04-27T02:08:05.031Z,5.45
2019-04-27T02:09:44.962Z,5.45
2019-04-27T02:11:20.852Z,5.44
2019-04-27T02:12:56.133Z,5.52
2019-04-27T02:14:31.523Z,5.49
2019-04-27T02:16:06.855Z,5.44
2019-04-27T02:17:43.120Z,5.48
2019-04-27T02:19:19.332Z,5.47
2019-04-27T02:20:55.059Z,5.44
2019-04-27T02:22:31.623Z,5.36
2019-04-27T02:24:06.778Z,5.34
2019-04-27T02:25:41.846Z,5.29
2019-04-27T02:27:18.731Z,5.32
2019-04-27T02:29:12.858Z,5.27
2019-04-27T02:31:09.546Z,5.22
2019-04-27T02:33:02.793Z,5.28
2019-04-27T02:34:45.335Z,5.30
2019-04-27T02:36:20.462Z,5.23
2019-04-27T02:38:00.262Z,5.26
2019-04-27T02:39:34.707Z,5.38
2019-04-27T02:41:10.199Z,5.32
2019-04-27T02:42:49.895Z,5.36
2019-04-27T02:44:43.428Z,5.32
2019-04-27T02:46:20.418Z,5.37
2019-04-27T02:47:59.793Z,5.29
2019-04-27T02:49:35.847Z,5.23
2019-04-27T02:51:21.244Z,5.16
2019-04-27T02:52:56.430Z,5.16
2019-04-27T02:54:31.868Z,5.16
2019-04-27T02:56:10.264Z,5.14
2019-04-27T02:57:45.344Z,5.11
2019-04-27T02:59:20.381Z,5.08
2019-04-27T03:00:55.690Z,4.97
2019-04-27T03:02:40.115Z,4.93
2019-04-27T03:04:17.094Z,4.97
2019-04-27T03:05:52.733Z,4.93
2019-04-27T03:07:36.189Z,4.92
2019-04-27T03:09:11.550Z,4.90
2019-04-27T03:10:46.975Z,4.94
2019-04-27T03:12:23.984Z,4.99
2019-04-27T03:14:29.713Z,4.93
2019-04-27T03:16:15.906Z,4.99
2019-04-27T03:18:15.749Z,4.97
2019-04-27T03:20:02.186Z,5.11
2019-04-27T03:21:55.654Z,5.09
2019-04-27T03:23:31.177Z,5.03
2019-04-27T03:25:30.314Z,5.12
2019-04-27T03:27:09.625Z,5.05
2019-04-27T03:28:44.350Z,4.99
2019-04-27T03:30:23.003Z,4.93
2019-04-27T03:31:56.897Z,5.08
2019-04-27T03:33:35.413Z,5.09
2019-04-27T03:35:12.953Z,5.00
2019-04-27T03:36:49.334Z,5.02
2019-04-27T03:38:25.116Z,5.02
2019-04-27T03:40:00.296Z,5.00
2019-04-27T03:41:35.459Z,5.02
2019-04-27T03:43:16.120Z,4.97
2019-04-27T03:44:51.527Z,5.04
2019-04-27T03:46:26.654Z,5.02
2019-04-27T03:48:02.101Z,5.10
2019-04-27T03:49:40.917Z,5.02
2019-04-27T03:51:23.571Z,5.00
2019-04-27T03:53:20.453Z,4.90
2019-04-27T03:55:03.094Z,4.90
2019-04-27T03:56:53.311Z,4.80
2019-04-27T03:58:35.450Z,4.84
2019-04-27T04:00:20.115Z,4.82
2019-04-27T04:01:55.344Z,4.74
2019-04-27T04:03:30.410Z,4.66
2019-04-27T04:05:06.324Z,4.74
2019-04-27T04:06:44.830Z,4.83
2019-04-27T04:08:30.541Z,4.87
2019-04-27T04:10:02.799Z,4.88
2019-04-27T04:11:54.185Z,4.96
2019-04-27T04:13:36.482Z,5.05
2019-04-27T04:15:16.006Z,5.01
2019-04-27T04:17:01.697Z,5.04
2019-04-27T04:18:52.334Z,5.18
2019-04-27T04:20:27.417Z,5.14
2019-04-27T04:22:02.767Z,5.22
2019-04-27T04:23:40.132Z,5.28
2019-04-27T04:25:14.634Z,5.35
2019-04-27T04:26:50.615Z,5.42
2019-04-27T04:28:26.148Z,5.45
2019-04-27T04:30:04.019Z,5.48
2019-04-27T04:31:40.495Z,5.53
2019-04-27T04:33:15.052Z,5.62
2019-04-27T04:34:50.407Z,5.54
2019-04-27T04:36:25.821Z,5.58
2019-04-27T04:38:01.157Z,5.60
2019-04-27T04:39:36.860Z,5.64
2019-04-27T04:41:15.176Z,5.64
2019-04-27T04:43:03.445Z,5.70
2019-04-27T04:45:05.291Z,5.81
2019-04-27T04:46:52.228Z,5.84
2019-04-27T04:48:30.052Z,5.88
2019-04-27T04:50:12.144Z,6.02
2019-04-27T04:51:43.397Z,6.05
2019-04-27T04:53:20.637Z,6.10
2019-04-27T04:54:55.327Z,6.16
2019-04-27T04:56:30.489Z,6.23
2019-04-27T04:58:05.642Z,6.35
2019-04-27T04:59:43.754Z,6.41
2019-04-27T05:01:19.659Z,6.47
2019-04-27T05:02:55.559Z,6.50
2019-04-27T05:04:32.856Z,6.52
2019-04-27T05:06:12.669Z,6.50
2019-04-27T05:07:48.618Z,6.62
2019-04-27T05:09:23.767Z,6.67
2019-04-27T05:11:00.368Z,6.74
2019-04-27T05:12:36.092Z,6.78
2019-04-27T05:14:16.378Z,6.88
2019-04-27T05:15:53.016Z,6.90
2019-04-27T05:17:33.993Z,7.01
2019-04-27T05:19:11.212Z,7.15
2019-04-27T05:21:10.970Z,7.27
2019-04-27T05:22:53.437Z,7.37
2019-04-27T05:24:34.555Z,7.48
2019-04-27T05:26:09.635Z,7.59
2019-04-27T05:27:44.900Z,7.75
2019-04-27T05:29:21.632Z,7.89
2019-04-27T05:30:56.763Z,8.04
2019-04-27T05:32:34.426Z,8.23
2019-04-27T05:34:17.004Z,8.46
2019-04-27T05:35:55.652Z,8.64
2019-04-27T05:37:31.785Z,8.67
2019-04-27T05:39:10.070Z,8.66
2019-04-27T05:40:49.693Z,8.74
2019-04-27T05:42:25.728Z,8.64
2019-04-27T05:44:20.829Z,8.74
2019-04-27T05:46:40.093Z,8.72
2019-04-27T05:48:27.373Z,8.78
2019-04-27T05:50:18.413Z,8.61
2019-04-27T05:51:51.488Z,8.71
2019-04-27T05:53:29.038Z,8.53
2019-04-27T05:55:05.114Z,8.55
2019-04-27T05:56:40.838Z,8.60
2019-04-27T05:58:16.470Z,8.63
2019-04-27T05:59:52.854Z,8.63
2019-04-27T06:01:29.670Z,8.67
2019-04-27T06:03:05.769Z,8.74
2019-04-27T06:04:41.381Z,8.71
2019-04-27T06:06:19.783Z,8.85
2019-04-27T06:07:58.842Z,8.85
2019-04-27T06:09:34.264Z,8.87
2019-04-27T06:11:09.728Z,8.84
2019-04-27T06:12:45.859Z,8.72
2019-04-27T06:14:21.147Z,8.75
2019-04-27T06:15:56.622Z,8.72
2019-04-27T06:17:35.258Z,8.57
2019-04-27T06:19:10.693Z,8.53
2019-04-27T06:20:53.530Z,8.66
2019-04-27T06:22:23.653Z,8.73
2019-04-27T06:23:58.973Z,8.77
2019-04-27T06:25:34.174Z,8.82
2019-04-27T06:27:11.076Z,8.75
2019-04-27T06:28:52.798Z,8.92
2019-04-27T06:30:29.194Z,8.96
2019-04-27T06:32:04.469Z,8.83
2019-04-27T06:33:39.717Z,8.86
2019-04-27T06:35:15.506Z,8.79
2019-04-27T06:36:51.058Z,8.81
2019-04-27T06:38:26.294Z,8.87
2019-04-27T06:40:04.688Z,8.95
2019-04-27T06:41:40.219Z,8.92
2019-04-27T06:43:18.858Z,8.94
2019-04-27T06:44:54.467Z,9.03
2019-04-27T06:46:30.484Z,9.09
2019-04-27T06:48:05.800Z,8.89
2019-04-27T06:49:41.214Z,8.90
2019-04-27T06:51:16.672Z,8.75
2019-04-27T06:52:52.338Z,8.78
2019-04-27T06:54:28.897Z,8.76
2019-04-27T06:56:04.210Z,8.73
2019-04-27T06:57:41.245Z,8.67
2019-04-27T06:59:16.586Z,8.61
2019-04-27T07:00:51.787Z,8.59
2019-04-27T07:02:29.123Z,8.60
2019-04-27T07:04:04.463Z,8.68
2019-04-27T07:05:40.108Z,8.57
2019-04-27T07:07:23.295Z,8.68
2019-04-27T07:08:59.787Z,8.55
2019-04-27T07:10:39.204Z,8.54
2019-04-27T07:12:16.093Z,8.46
2019-04-27T07:13:51.357Z,8.48
2019-04-27T07:15:26.529Z,8.52
2019-04-27T07:17:01.781Z,8.49
2019-04-27T07:18:37.096Z,8.53
2019-04-27T07:20:13.001Z,8.46
2019-04-27T07:21:49.766Z,8.44
2019-04-27T07:23:29.297Z,8.38
2019-04-27T07:25:08.920Z,8.42
2019-04-27T07:26:43.757Z,8.33
2019-04-27T07:28:19.620Z,8.23
2019-04-27T07:29:54.917Z,8.28
2019-04-27T07:31:33.927Z,8.20
2019-04-27T07:33:09.376Z,8.23
2019-04-27T07:34:46.786Z,8.19
2019-04-27T07:36:21.980Z,8.16
2019-04-27T07:37:58.841Z,8.23
2019-04-27T07:39:36.274Z,8.27
2019-04-27T07:41:16.462Z,8.20
2019-04-27T07:42:55.349Z,8.29
2019-04-27T07:44:59.529Z,8.31
2019-04-27T07:46:36.202Z,8.36
2019-04-27T07:48:11.868Z,8.44
2019-04-27T07:49:49.685Z,8.39
2019-04-27T07:51:32.186Z,8.42
2019-04-27T07:53:02.899Z,8.44
2019-04-27T07:54:41.583Z,8.36
2019-04-27T07:56:22.007Z,8.40
2019-04-27T07:57:57.197Z,8.27
2019-04-27T07:59:32.236Z,8.30
2019-04-27T08:01:09.192Z,8.38
2019-04-27T08:02:45.889Z,8.32
2019-04-27T08:04:21.014Z,8.31
2019-04-27T08:05:56.493Z,8.18
2019-04-27T08:07:41.961Z,8.23
2019-04-27T08:09:19.099Z,8.23
2019-04-27T08:10:59.627Z,8.15
2019-04-27T08:12:38.703Z,8.12
2019-04-27T08:14:15.534Z,8.11
2019-04-27T08:15:53.889Z,8.10
2019-04-27T08:17:33.821Z,8.07
2019-04-27T08:19:10.454Z,8.11
2019-04-27T08:20:50.475Z,8.13
2019-04-27T08:22:25.538Z,8.12
2019-04-27T08:24:04.801Z,8.07
2019-04-27T08:25:42.729Z,8.03
2019-04-27T08:27:45.419Z,8.16
2019-04-27T08:29:33.900Z,8.09
2019-04-27T08:31:18.721Z,8.07
2019-04-27T08:32:54.597Z,8.01
2019-04-27T08:34:39.837Z,7.98
2019-04-27T08:36:15.367Z,7.97
2019-04-27T08:37:50.716Z,7.96
2019-04-27T08:39:25.839Z,7.99
2019-04-27T08:41:02.121Z,8.03
2019-04-27T08:42:39.119Z,7.95
2019-04-27T08:44:25.235Z,7.92
2019-04-27T08:46:06.099Z,7.90
2019-04-27T08:47:42.205Z,7.93
2019-04-27T08:49:18.493Z,7.95
2019-04-27T08:50:56.038Z,7.90
2019-04-27T08:52:33.785Z,7.99
2019-04-27T08:54:11.294Z,7.94
2019-04-27T08:55:45.619Z,7.85
2019-04-27T08:57:23.976Z,7.86
2019-04-27T08:59:03.251Z,7.81
2019-04-27T09:00:41.120Z,7.85
2019-04-27T09:02:16.223Z,7.87
2019-04-27T09:03:56.800Z,7.83
2019-04-27T09:05:35.722Z,7.90
2019-04-27T09:07:31.728Z,7.94
2019-04-27T09:09:13.566Z,7.90
2019-04-27T09:11:08.884Z,8.00
2019-04-27T09:13:02.829Z,8.13
2019-04-27T09:14:51.924Z,8.10
2019-04-27T09:16:34.858Z,8.10
2019-04-27T09:18:10.348Z,8.12
2019-04-27T09:20:13.745Z,8.11
2019-04-27T09:22:16.025Z,8.24
2019-04-27T09:23:45.641Z,8.26
2019-04-27T09:25:23.041Z,8.33
2019-04-27T09:27:02.576Z,8.37
2019-04-27T09:28:39.303Z,8.41
2019-04-27T09:30:29.701Z,8.55
2019-04-27T09:31:55.723Z,8.48
2019-04-27T09:33:31.360Z,8.59
2019-04-27T09:35:10.339Z,8.54
2019-04-27T09:36:45.910Z,8.54
2019-04-27T09:38:21.396Z,8.61
2019-04-27T09:39:56.927Z,8.61
2019-04-27T09:41:37.787Z,8.55
2019-04-27T09:43:13.182Z,8.54
2019-04-27T09:44:48.569Z,8.54
2019-04-27T09:46:26.010Z,8.43
2019-04-27T09:48:04.339Z,8.40
2019-04-27T09:49:39.369Z,8.48
2019-04-27T09:51:16.257Z,8.43
2019-04-27T09:52:51.559Z,8.38
2019-04-27T09:54:27.703Z,8.50
2019-04-27T09:56:02.704Z,8.57
2019-04-27T09:57:39.997Z,8.54
2019-04-27T09:59:22.189Z,8.50
2019-04-27T10:01:20.742Z,8.49
2019-04-27T10:02:56.452Z,8.52
2019-04-27T10:04:35.564Z,8.53
2019-04-27T10:06:12.453Z,8.49
2019-04-27T10:07:51.115Z,8.50
2019-04-27T10:09:29.574Z,8.55
2019-04-27T10:11:05.853Z,8.49
2019-04-27T10:12:41.342Z,8.47
2019-04-27T10:14:16.671Z,8.54
2019-04-27T10:15:52.107Z,8.57
2019-04-27T10:17:28.055Z,8.59
2019-04-27T10:19:03.087Z,8.63
2019-04-27T10:20:40.929Z,8.64
2019-04-27T10:22:16.241Z,8.58
2019-04-27T10:23:51.465Z,8.50
2019-04-27T10:25:29.597Z,8.46
2019-04-27T10:27:05.832Z,8.38
2019-04-27T10:28:41.417Z,8.41
2019-04-27T10:30:16.457Z,8.50
2019-04-27T10:31:53.239Z,8.42
2019-04-27T10:33:36.469Z,8.43
2019-04-27T10:35:16.089Z,8.41
2019-04-27T10:36:51.616Z,8.51
2019-04-27T10:38:26.993Z,8.63
2019-04-27T10:40:02.639Z,8.58
2019-04-27T10:41:37.836Z,8.61
2019-04-27T10:43:12.885Z,8.71
2019-04-27T10:44:49.819Z,8.72
2019-04-27T10:46:25.833Z,8.80
2019-04-27T10:48:04.018Z,8.80
2019-04-27T10:49:39.019Z,8.90
2019-04-27T10:51:15.992Z,8.92
2019-04-27T10:52:53.569Z,9.01
2019-04-27T10:54:29.629Z,9.04
2019-04-27T10:56:04.743Z,9.24
2019-04-27T10:57:43.061Z,9.43
2019-04-27T10:59:21.542Z,9.46
2019-04-27T11:00:58.580Z,9.34
2019-04-27T11:02:43.662Z,9.29
2019-04-27T11:04:29.148Z,9.32
2019-04-27T11:06:17.992Z,9.27
2019-04-27T11:07:58.724Z,9.16
2019-04-27T11:09:34.098Z,8.82
2019-04-27T11:11:11.386Z,7.74
2019-04-27T11:12:49.242Z,7.05
2019-04-27T11:14:27.217Z,6.77
2019-04-27T11:16:06.494Z,6.74
2019-04-27T11:17:42.879Z,6.66
2019-04-27T11:19:19.774Z,6.61
2019-04-27T11:20:56.789Z,6.54
2019-04-27T11:22:40.266Z,6.50
2019-04-27T11:24:18.731Z,6.53
2019-04-27T11:25:54.063Z,6.59
2019-04-27T11:27:46.678Z,6.36
2019-04-27T11:29:25.927Z,6.44
2019-04-27T11:31:00.696Z,6.59
2019-04-27T11:32:36.670Z,6.60
2019-04-27T11:36:14.848Z,6.58
2019-04-27T11:37:49.488Z,6.55
2019-04-27T11:39:26.647Z,6.48
2019-04-27T11:41:01.768Z,6.38
2019-04-27T11:42:38.060Z,6.53
2019-04-27T11:44:17.103Z,6.50
2019-04-27T11:45:57.266Z,6.52
2019-04-27T11:47:32.399Z,6.65
2019-04-27T11:49:07.505Z,6.67
2019-04-27T11:50:45.804Z,6.73
2019-04-27T11:52:22.129Z,6.72
2019-04-27T11:53:57.278Z,6.55
2019-04-27T11:55:38.203Z,6.59
2019-04-27T11:57:16.701Z,6.71
2019-04-27T11:58:55.957Z,6.79
2019-04-27T12:00:36.453Z,6.96
2019-04-27T12:02:15.601Z,7.02
2019-04-27T12:03:51.065Z,7.22
2019-04-27T12:05:26.677Z,7.23
2019-04-27T12:07:01.718Z,7.06
2019-04-27T12:08:36.970Z,6.92
2019-04-27T12:10:15.831Z,6.76
2019-04-27T12:11:51.369Z,6.77
2019-04-27T12:13:26.967Z,6.79
2019-04-27T12:15:05.860Z,6.74
2019-04-27T12:16:41.129Z,6.79
2019-04-27T12:18:16.913Z,6.83
2019-04-27T12:19:52.105Z,6.82
2019-04-27T12:21:27.711Z,6.73
2019-04-27T12:23:11.620Z,6.74
2019-04-27T12:24:52.985Z,6.67
2019-04-27T12:26:36.262Z,6.75
2019-04-27T12:28:22.952Z,6.69
2019-04-27T12:30:27.342Z,6.83
2019-04-27T12:32:07.314Z,6.81
2019-04-27T12:33:46.082Z,6.67
2019-04-27T12:35:22.994Z,6.57
2019-04-27T12:37:07.143Z,6.28
2019-04-27T12:38:44.267Z,6.27
2019-04-27T12:40:22.247Z,6.21
2019-04-27T12:41:57.942Z,6.09
2019-04-27T12:43:33.118Z,6.03
2019-04-27T12:45:08.829Z,5.93
2019-04-27T12:46:44.079Z,5.87
2019-04-27T12:48:19.662Z,5.88
2019-04-27T12:49:57.501Z,5.92
2019-04-27T12:51:31.813Z,5.88
2019-04-27T12:53:11.190Z,5.85
2019-04-27T12:54:55.459Z,5.75
2019-04-27T12:56:55.852Z,5.67
2019-04-27T12:59:07.612Z,5.61
2019-04-27T13:00:44.891Z,5.79
2019-04-27T13:02:21.609Z,5.77
2019-04-27T13:03:59.308Z,5.80
2019-04-27T13:05:35.865Z,5.82
2019-04-27T13:07:20.220Z,5.92
2019-04-27T13:08:55.776Z,6.13
2019-04-27T13:10:31.207Z,6.23
2019-04-27T13:12:06.317Z,6.39
2019-04-27T13:13:44.815Z,6.50
2019-04-27T13:15:21.939Z,6.59
2019-04-27T13:16:57.073Z,6.72
2019-04-27T13:18:36.142Z,7.02
2019-04-27T13:20:11.562Z,7.17
2019-04-27T13:21:50.190Z,7.46
2019-04-27T13:23:25.525Z,7.63
2019-04-27T13:25:02.202Z,7.81
2019-04-27T13:26:39.991Z,8.22
2019-04-27T13:28:18.698Z,8.16
2019-04-27T13:29:55.631Z,8.18
2019-04-27T13:31:32.159Z,8.75
2019-04-27T13:33:07.596Z,8.98
2019-04-27T13:34:43.154Z,9.33
2019-04-27T13:36:18.157Z,8.94
2019-04-27T13:37:55.800Z,9.08
2019-04-27T13:39:31.520Z,9.15
2019-04-27T13:41:10.157Z,8.94
2019-04-27T13:43:01.611Z,8.73
2019-04-27T13:44:36.637Z,8.55
2019-04-27T13:46:49.610Z,8.71
2019-04-27T13:48:56.772Z,8.37
2019-04-27T13:50:39.961Z,8.47
2019-04-27T13:52:22.289Z,8.51
2019-04-27T13:53:57.682Z,8.27
2019-04-27T13:55:32.910Z,8.45
2019-04-27T13:57:16.459Z,8.11
2019-04-27T13:58:52.186Z,8.46
2019-04-27T14:00:29.965Z,8.54
2019-04-27T14:02:05.444Z,8.81
2019-04-27T14:03:40.617Z,8.86
2019-04-27T14:05:15.723Z,8.99
2019-04-27T14:06:56.264Z,9.05
2019-04-27T14:08:31.389Z,8.99
2019-04-27T14:10:09.386Z,9.25
2019-04-27T14:11:55.900Z,9.15
2019-04-27T14:13:30.724Z,9.27
2019-04-27T14:15:19.811Z,9.41
2019-04-27T14:16:54.418Z,9.17
2019-04-27T14:18:32.697Z,8.89
2019-04-27T14:20:09.581Z,9.04
2019-04-27T14:21:44.874Z,9.25
2019-04-27T14:23:25.025Z,9.37
2019-04-27T14:25:00.216Z,9.88
2019-04-27T14:26:36.441Z,9.97
2019-04-27T14:28:13.400Z,10.04
2019-04-27T14:29:59.370Z,10.22
2019-04-27T14:31:34.439Z,10.40
2019-04-27T14:33:12.998Z,10.05
2019-04-27T14:34:50.369Z,10.12
2019-04-27T14:36:29.122Z,10.27
2019-04-27T14:38:04.354Z,10.63
2019-04-27T14:39:43.861Z,10.72
2019-04-27T14:41:20.734Z,10.52
2019-04-27T14:42:56.596Z,10.85
2019-04-27T14:44:32.471Z,11.16
2019-04-27T14:46:08.127Z,11.16
2019-04-27T14:47:43.895Z,11.43
2019-04-27T14:49:23.278Z,11.26
2019-04-27T14:50:59.072Z,11.21
2019-04-27T14:52:34.350Z,10.71
2019-04-27T14:54:47.311Z,10.87
2019-04-27T14:56:15.263Z,10.65
2019-04-27T14:58:19.585Z,10.54
2019-04-27T15:00:06.202Z,10.33
2019-04-27T15:01:41.272Z,9.97
2019-04-27T15:03:27.907Z,9.98
2019-04-27T15:05:13.462Z,10.19
2019-04-27T15:07:08.009Z,10.03
2019-04-27T15:08:49.339Z,9.50
2019-04-27T15:10:33.068Z,8.95
2019-04-27T15:12:07.439Z,9.05
2019-04-27T15:13:47.905Z,9.09
2019-04-27T15:15:21.408Z,8.84
2019-04-27T15:16:56.777Z,8.76
2019-04-27T15:18:39.918Z,8.62
2019-04-27T15:20:22.664Z,8.50
2019-04-27T15:21:59.349Z,8.18
2019-04-27T15:23:38.202Z,7.96
2019-04-27T15:25:20.161Z,7.78
2019-04-27T15:27:00.821Z,7.85
2019-04-27T15:28:44.722Z,7.62
2019-04-27T15:30:25.671Z,7.66
2019-04-27T15:32:04.241Z,7.57
2019-04-27T15:34:15.256Z,7.72
2019-04-27T15:36:14.493Z,7.79
2019-04-27T15:38:11.290Z,7.66
2019-04-27T15:40:38.346Z,7.77
2019-04-27T15:42:19.294Z,7.94
2019-04-27T15:43:54.438Z,7.90
2019-04-27T15:45:31.621Z,8.13
2019-04-27T15:47:12.112Z,8.36
2019-04-27T15:48:58.491Z,8.70
2019-04-27T15:50:40.168Z,8.74
2019-04-27T15:52:25.475Z,8.54
2019-04-27T15:54:06.054Z,8.71
2019-04-27T15:55:45.844Z,8.84
2019-04-27T15:57:23.950Z,8.74
2019-04-27T15:59:00.004Z,9.09
2019-04-27T16:00:56.550Z,8.81
2019-04-27T16:02:29.052Z,8.74
2019-04-27T16:04:23.228Z,8.83
2019-04-27T16:06:19.047Z,8.85
2019-04-27T16:08:05.968Z,9.25
2019-04-27T16:09:59.218Z,9.28
2019-04-27T16:11:38.453Z,9.32
2019-04-27T16:13:45.821Z,8.90
2019-04-27T16:15:27.898Z,9.01
2019-04-27T16:17:08.097Z,9.04
2019-04-27T16:18:59.338Z,8.86
2019-04-27T16:20:46.114Z,8.77
2019-04-27T16:22:31.521Z,8.66
2019-04-27T16:24:33.502Z,8.65
2019-04-27T16:26:11.279Z,8.47
2019-04-27T16:27:48.991Z,8.41
2019-04-27T16:29:28.121Z,8.48
2019-04-27T16:31:05.188Z,8.55
2019-04-27T16:32:45.928Z,8.49
2019-04-27T16:34:21.204Z,8.47
2019-04-27T16:36:06.329Z,8.38
2019-04-27T16:38:05.576Z,8.21
2019-04-27T16:39:45.528Z,8.10
2019-04-27T16:41:20.467Z,8.12
2019-04-27T16:43:01.020Z,8.06
2019-04-27T16:44:44.402Z,8.02
2019-04-27T16:46:19.080Z,7.89
2019-04-27T16:47:56.473Z,7.85
2019-04-27T16:49:44.169Z,7.78
2019-04-27T16:51:18.296Z,7.74
2019-04-27T16:52:59.081Z,7.72
2019-04-27T16:54:33.473Z,7.75
2019-04-27T16:56:15.178Z,7.71
2019-04-27T16:57:48.534Z,7.74
2019-04-27T16:59:40.891Z,7.81
2019-04-27T17:01:06.812Z,7.73
2019-04-27T17:02:40.229Z,7.76
2019-04-27T17:04:15.947Z,7.70
2019-04-27T17:05:51.170Z,7.73
2019-04-27T17:07:37.540Z,7.61
2019-04-27T17:11:38.287Z,7.32
2019-04-27T17:13:14.669Z,7.18
2019-04-27T17:17:34.336Z,7.04
2019-04-27T17:19:41.269Z,6.73
2019-04-27T17:21:23.424Z,6.65
2019-04-27T17:23:05.382Z,6.40
2019-04-27T17:25:04.090Z,6.38
2019-04-27T17:26:48.761Z,5.92
2019-04-27T17:28:33.475Z,5.71
2019-04-27T17:30:21.385Z,5.59
2019-04-27T17:32:04.289Z,5.56
2019-04-27T17:33:51.377Z,5.55
2019-04-27T17:35:28.589Z,5.65
2019-04-27T17:37:08.283Z,5.70
2019-04-27T17:38:51.232Z,5.68
2019-04-27T17:40:30.010Z,5.69
2019-04-27T17:42:08.447Z,5.87
2019-04-27T17:43:48.204Z,5.91
2019-04-27T17:45:36.114Z,5.88
2019-04-27T17:47:10.990Z,5.96
2019-04-27T17:48:48.567Z,5.87
2019-04-27T17:50:29.791Z,5.92
2019-04-27T17:52:05.897Z,5.94
2019-04-27T17:53:41.062Z,5.92
2019-04-27T17:55:24.286Z,5.95
2019-04-27T17:56:57.679Z,5.92
2019-04-27T17:58:35.335Z,5.99
2019-04-27T18:00:14.422Z,6.00
2019-04-27T18:01:58.063Z,6.02
2019-04-27T18:03:35.698Z,5.99
2019-04-27T18:05:20.503Z,5.98
2019-04-27T18:07:05.284Z,6.03
2019-04-27T18:08:48.658Z,6.06
2019-04-27T18:10:38.377Z,6.09
2019-04-27T18:12:37.645Z,6.00
2019-04-27T18:14:47.840Z,5.96
2019-04-27T18:16:34.479Z,5.94
2019-04-27T18:18:31.656Z,5.89
2019-04-27T18:21:06.023Z,5.85
2019-04-27T18:22:54.198Z,5.90
2019-04-27T18:25:18.777Z,5.81
2019-04-27T18:27:15.891Z,5.78
2019-04-27T18:29:01.473Z,5.83
2019-04-27T18:31:11.566Z,5.85
2019-04-27T18:32:51.733Z,5.83
2019-04-27T18:34:30.409Z,5.77
2019-04-27T18:36:18.258Z,5.74
2019-04-27T18:38:01.591Z,5.68
2019-04-27T18:39:38.775Z,5.68
2019-04-27T18:41:19.215Z,5.71
2019-04-27T18:42:57.530Z,5.67
2019-04-27T18:44:34.776Z,5.66
2019-04-27T18:46:14.951Z,5.61
2019-04-27T18:48:06.610Z,5.59
2019-04-27T18:52:08.859Z,5.58
2019-04-27T18:53:54.310Z,5.51
2019-04-27T18:55:33.301Z,5.48
2019-04-27T18:57:15.104Z,5.42
2019-04-27T18:58:58.031Z,5.42
2019-04-27T19:00:48.968Z,5.40
2019-04-27T19:02:24.652Z,5.38
2019-04-27T19:04:01.576Z,5.34
2019-04-27T19:05:40.727Z,5.30
2019-04-27T19:07:15.977Z,5.32
2019-04-27T19:09:02.894Z,5.35
2019-04-27T19:10:41.533Z,5.35
2019-04-27T19:12:22.604Z,5.37
2019-04-27T19:14:09.537Z,5.35
2019-04-27T19:15:48.793Z,5.36
2019-04-27T19:17:28.462Z,5.41
2019-04-27T19:19:08.695Z,5.38
2019-04-27T19:20:45.627Z,5.40
2019-04-27T19:22:21.739Z,5.42
2019-04-27T19:24:08.738Z,5.48
2019-04-27T19:26:08.789Z,5.47
2019-04-27T19:28:21.251Z,5.52
2019-04-27T19:30:28.052Z,5.56
2019-04-27T19:32:08.035Z,5.62
2019-04-27T19:33:51.856Z,5.59
2019-04-27T19:35:28.812Z,5.46
2019-04-27T19:37:09.765Z,5.39
2019-04-27T19:38:44.849Z,5.27
2019-04-27T19:40:21.860Z,5.26
2019-04-27T19:42:02.984Z,5.23
2019-04-27T19:43:38.444Z,5.20
2019-04-27T19:45:19.332Z,5.14
2019-04-27T19:46:59.984Z,5.07
2019-04-27T19:48:39.793Z,5.07
2019-04-27T19:50:19.086Z,5.03
2019-04-27T19:51:55.997Z,5.01
2019-04-27T19:53:35.681Z,4.96
2019-04-27T19:55:16.217Z,4.95
2019-04-27T19:56:51.840Z,4.95
2019-04-27T19:58:28.784Z,4.96
2019-04-27T20:00:19.310Z,4.97
2019-04-27T20:01:56.306Z,4.95
2019-04-27T20:03:41.443Z,5.00
2019-04-27T20:05:19.509Z,4.97
2019-04-27T20:07:12.026Z,4.97
2019-04-27T20:08:51.619Z,4.94
2019-04-27T20:10:43.072Z,4.94
2019-04-27T20:12:21.289Z,4.98
2019-04-27T20:14:00.823Z,5.01
2019-04-27T20:15:38.195Z,5.01
2019-04-27T20:17:13.185Z,5.02
2019-04-27T20:18:51.648Z,5.05
2019-04-27T20:20:30.775Z,5.01
2019-04-27T20:22:06.369Z,5.08
2019-04-27T20:23:44.490Z,5.06
2019-04-27T20:25:21.285Z,5.01
2019-04-27T20:26:57.261Z,5.06
2019-04-27T20:28:38.463Z,5.12
2019-04-27T20:30:15.638Z,5.13
2019-04-27T20:31:51.282Z,5.16
2019-04-27T20:33:26.619Z,5.16
2019-04-27T20:35:03.975Z,5.09
2019-04-27T20:36:46.807Z,5.07
2019-04-27T20:38:26.359Z,5.07
2019-04-27T20:40:06.222Z,5.06
2019-04-27T20:42:26.387Z,5.08
2019-04-27T20:44:02.200Z,5.08
2019-04-27T20:45:37.091Z,5.08
2019-04-27T20:47:12.935Z,5.08
2019-04-27T20:48:51.257Z,5.10
2019-04-27T20:50:30.889Z,5.07
2019-04-27T20:52:28.035Z,5.10
2019-04-27T20:54:03.330Z,5.11
2019-04-27T20:55:41.554Z,5.20
2019-04-27T20:57:21.574Z,5.20
2019-04-27T20:59:00.468Z,5.19
2019-04-27T21:00:41.750Z,5.27
2019-04-27T21:02:37.768Z,5.23
2019-04-27T21:04:16.815Z,5.23
2019-04-27T21:06:27.198Z,5.26
2019-04-27T21:08:11.712Z,5.29
2019-04-27T21:09:48.004Z,5.28
2019-04-27T21:11:32.049Z,5.16
2019-04-27T21:13:08.016Z,5.16
2019-04-27T21:14:46.318Z,5.12
2019-04-27T21:16:27.386Z,5.12
2019-04-27T21:18:02.776Z,5.09
2019-04-27T21:19:46.861Z,5.10
2019-04-27T21:21:24.494Z,5.12
2019-04-27T21:23:21.624Z,5.03
2019-04-27T21:24:57.424Z,5.09
2019-04-27T21:26:39.331Z,5.12
2019-04-27T21:28:19.043Z,5.14
2019-04-27T21:29:53.708Z,5.19
2019-04-27T21:31:32.615Z,5.22
2019-04-27T21:33:11.533Z,5.18
2019-04-27T21:34:56.757Z,5.23
2019-04-27T21:36:35.044Z,5.27
2019-04-27T21:38:13.003Z,5.24
2019-04-27T21:39:55.792Z,5.30
2019-04-27T21:41:34.744Z,5.37
2019-04-27T21:43:11.349Z,5.34
2019-04-27T21:44:46.269Z,5.36
2019-04-27T21:46:24.168Z,5.36
2019-04-27T21:48:08.375Z,5.34
2019-04-27T21:50:03.902Z,5.27
2019-04-27T21:52:01.219Z,5.30
2019-04-27T21:53:55.314Z,5.32
2019-04-27T21:55:30.941Z,5.27
2019-04-27T21:57:07.208Z,5.19
2019-04-27T21:58:47.043Z,5.25
2019-04-27T22:00:52.495Z,5.24
2019-04-27T22:02:27.677Z,5.16
2019-04-27T22:04:04.344Z,5.10
2019-04-27T22:05:42.400Z,5.12
2019-04-27T22:07:31.686Z,5.10
2019-04-27T22:09:11.270Z,5.16
2019-04-27T22:10:47.374Z,5.10
2019-04-27T22:12:22.807Z,5.08
2019-04-27T22:14:02.393Z,5.12
2019-04-27T22:15:41.531Z,5.11
2019-04-27T22:17:25.311Z,5.07
2019-04-27T22:19:14.467Z,5.08
2019-04-27T22:20:55.806Z,5.12
2019-04-27T22:22:41.413Z,5.15
2019-04-27T22:24:43.054Z,5.09
2019-04-27T22:26:21.684Z,5.11
2019-04-27T22:28:01.565Z,5.13
2019-04-27T22:29:39.548Z,5.15
2019-04-27T22:31:18.553Z,5.15